sensor_id;sensor_type;location;lat;lon;timestamp;pressure;altitude;pressure_sealevel;temperature;humidity
45864;BME280;31579;52.354;16.974;2023-04-23T00:00:02;-132.3;;;-146.1;100.0
45864;BME280;31579;52.354;16.974;2023-04-23T00:01:04;-132.5;;;-146.1;100.0
45864;BME280;31579;52.354;16.974;2023-04-23T00:02:09;-131.4;;;-146.1;100.0
45864;BME280;31579;52.354;16.974;2023-04-23T00:03:13;-131.4;;;-146.1;100.0
45864;BME280;31579;52.354;16.974;2023-04-23T00:04:17;-132.4;;;-146.1;100.0
45864;BME280;31579;52.354;16.974;2023-04-23T00:05:21;-131.9;;;-146.1;100.0
45864;BME280;31579;52.354;16.974;2023-04-23T00:06:26;-130.5;;;-146.1;100.0
45864;BME280;31579;52.354;16.974;2023-04-23T00:07:31;-130.1;;;-146.1;100.0
45864;BME280;31579;52.354;16.974;2023-04-23T00:08:34;-129.2;;;-146.1;100.0
45864;BME280;31579;52.354;16.974;2023-04-23T00:09:38;-129.4;;;-146.1;100.0
45864;BME280;31579;52.354;16.974;2023-04-23T00:10:42;-129.2;;;-146.1;100.0
45864;BME280;31579;52.354;16.974;2023-04-23T00:11:46;-129.3;;;-146.1;100.0
45864;BME280;31579;52.354;16.974;2023-04-23T00:12:50;-128.2;;;-146.1;100.0
45864;BME280;31579;52.354;16.974;2023-04-23T00:13:55;-127.7;;;-146.1;100.0
45864;BME280;31579;52.354;16.974;2023-04-23T00:14:59;-126.9;;;-146.1;100.0
45864;BME280;31579;52.354;16.974;2023-04-23T00:16:03;-126.7;;;-146.1;100.0
45864;BME280;31579;52.354;16.974;2023-04-23T00:17:06;-130.5;;;-146.1;100.0
45864;BME280;31579;52.354;16.974;2023-04-23T00:18:10;-129.6;;;-146.1;100.0
45864;BME280;31579;52.354;16.974;2023-04-23T00:19:14;-129.1;;;-146.1;100.0
45864;BME280;31579;52.354;16.974;2023-04-23T00:20:18;-128.3;;;-146.1;100.0
45864;BME280;31579;52.354;16.974;2023-04-23T00:21:22;-128.2;;;-146.1;100.0
45864;BME280;31579;52.354;16.974;2023-04-23T00:22:26;-128.0;;;-146.1;100.0
45864;BME280;31579;52.354;16.974;2023-04-23T00:23:30;-127.8;;;-146.1;100.0
45864;BME280;31579;52.354;16.974;2023-04-23T00:24:34;-127.5;;;-146.1;100.0
45864;BME280;31579;52.354;16.974;2023-04-23T00:25:38;-128.1;;;-146.1;100.0
45864;BME280;31579;52.354;16.974;2023-04-23T00:26:42;-129.7;;;-146.1;100.0
45864;BME280;31579;52.354;16.974;2023-04-23T00:27:46;-130.1;;;-146.1;100.0
45864;BME280;31579;52.354;16.974;2023-04-23T00:28:50;-130.0;;;-146.1;100.0
45864;BME280;31579;52.354;16.974;2023-04-23T00:29:54;-130.4;;;-146.1;100.0
45864;BME280;31579;52.354;16.974;2023-04-23T00:30:58;-129.6;;;-146.1;100.0
45864;BME280;31579;52.354;16.974;2023-04-23T00:32:03;-130.0;;;-146.1;100.0
45864;BME280;31579;52.354;16.974;2023-04-23T00:33:07;-130.8;;;-146.1;100.0
45864;BME280;31579;52.354;16.974;2023-04-23T00:34:11;-130.3;;;-146.1;100.0
45864;BME280;31579;52.354;16.974;2023-04-23T00:35:16;-130.0;;;-146.1;100.0
45864;BME280;31579;52.354;16.974;2023-04-23T00:36:20;-131.5;;;-146.1;100.0
45864;BME280;31579;52.354;16.974;2023-04-23T00:37:24;-132.0;;;-146.1;100.0
45864;BME280;31579;52.354;16.974;2023-04-23T00:38:28;-131.8;;;-146.1;100.0
45864;BME280;31579;52.354;16.974;2023-04-23T00:39:32;-132.3;;;-146.1;100.0
45864;BME280;31579;52.354;16.974;2023-04-23T00:40:36;-132.7;;;-146.1;100.0
45864;BME280;31579;52.354;16.974;2023-04-23T00:41:40;-132.9;;;-146.1;100.0
45864;BME280;31579;52.354;16.974;2023-04-23T00:42:44;-133.1;;;-146.1;100.0
45864;BME280;31579;52.354;16.974;2023-04-23T00:43:48;-132.0;;;-146.1;100.0
45864;BME280;31579;52.354;16.974;2023-04-23T00:44:52;-132.8;;;-146.1;100.0
45864;BME280;31579;52.354;16.974;2023-04-23T00:45:56;-133.6;;;-146.1;100.0
45864;BME280;31579;52.354;16.974;2023-04-23T00:47:00;-134.2;;;-146.1;100.0
45864;BME280;31579;52.354;16.974;2023-04-23T00:48:04;-135.7;;;-146.1;100.0
45864;BME280;31579;52.354;16.974;2023-04-23T00:49:06;-130.8;;;-146.1;100.0
45864;BME280;31579;52.354;16.974;2023-04-23T00:50:10;-136.4;;;-146.1;100.0
45864;BME280;31579;52.354;16.974;2023-04-23T00:51:14;-136.3;;;-146.1;100.0
45864;BME280;31579;52.354;16.974;2023-04-23T00:52:18;-136.8;;;-146.1;100.0
45864;BME280;31579;52.354;16.974;2023-04-23T00:53:22;-137.3;;;-146.1;100.0
45864;BME280;31579;52.354;16.974;2023-04-23T00:54:26;-136.7;;;-146.1;100.0
45864;BME280;31579;52.354;16.974;2023-04-23T00:55:30;-136.7;;;-146.1;100.0
45864;BME280;31579;52.354;16.974;2023-04-23T00:56:34;-137.0;;;-146.1;100.0
45864;BME280;31579;52.354;16.974;2023-04-23T00:57:38;-137.2;;;-146.1;100.0
45864;BME280;31579;52.354;16.974;2023-04-23T00:58:42;-136.6;;;-146.1;100.0
45864;BME280;31579;52.354;16.974;2023-04-23T00:59:46;-135.6;;;-146.1;100.0
45864;BME280;31579;52.354;16.974;2023-04-23T01:00:50;-135.1;;;-146.1;100.0
45864;BME280;31579;52.354;16.974;2023-04-23T01:01:54;-135.1;;;-146.1;100.0
45864;BME280;31579;52.354;16.974;2023-04-23T01:02:58;-135.2;;;-146.1;100.0
45864;BME280;31579;52.354;16.974;2023-04-23T01:04:00;-130.3;;;-146.1;100.0
45864;BME280;31579;52.354;16.974;2023-04-23T01:05:03;-135.5;;;-146.1;100.0
45864;BME280;31579;52.354;16.974;2023-04-23T01:06:07;-135.5;;;-146.1;100.0
45864;BME280;31579;52.354;16.974;2023-04-23T01:07:11;-135.3;;;-146.1;100.0
45864;BME280;31579;52.354;16.974;2023-04-23T01:08:22;-134.2;;;-146.1;100.0
45864;BME280;31579;52.354;16.974;2023-04-23T01:09:26;-135.3;;;-146.1;100.0
45864;BME280;31579;52.354;16.974;2023-04-23T01:10:30;-135.7;;;-146.1;100.0
45864;BME280;31579;52.354;16.974;2023-04-23T01:11:37;-136.7;;;-146.1;100.0
45864;BME280;31579;52.354;16.974;2023-04-23T01:12:38;-137.1;;;-146.1;100.0
45864;BME280;31579;52.354;16.974;2023-04-23T01:13:42;-137.6;;;-146.1;100.0
45864;BME280;31579;52.354;16.974;2023-04-23T01:14:46;-138.2;;;-146.1;100.0
45864;BME280;31579;52.354;16.974;2023-04-23T01:15:50;-138.5;;;-146.1;100.0
45864;BME280;31579;52.354;16.974;2023-04-23T01:16:54;-138.7;;;-146.1;100.0
45864;BME280;31579;52.354;16.974;2023-04-23T01:17:58;-139.4;;;-146.1;100.0
45864;BME280;31579;52.354;16.974;2023-04-23T01:19:00;-124.7;;;-146.1;100.0
45864;BME280;31579;52.354;16.974;2023-04-23T01:20:05;-140.8;;;-146.1;100.0
45864;BME280;31579;52.354;16.974;2023-04-23T01:21:09;-141.3;;;-146.1;100.0
45864;BME280;31579;52.354;16.974;2023-04-23T01:22:13;-141.6;;;-146.1;100.0
45864;BME280;31579;52.354;16.974;2023-04-23T01:23:18;-135.5;;;-146.1;100.0
45864;BME280;31579;52.354;16.974;2023-04-23T01:24:22;-141.6;;;-146.1;100.0
45864;BME280;31579;52.354;16.974;2023-04-23T01:25:26;-141.6;;;-146.1;100.0
45864;BME280;31579;52.354;16.974;2023-04-23T01:26:30;-141.7;;;-146.1;100.0
45864;BME280;31579;52.354;16.974;2023-04-23T01:27:34;-141.4;;;-146.1;100.0
45864;BME280;31579;52.354;16.974;2023-04-23T01:28:38;-141.0;;;-146.1;100.0
45864;BME280;31579;52.354;16.974;2023-04-23T01:29:42;-140.7;;;-146.1;100.0
45864;BME280;31579;52.354;16.974;2023-04-23T01:30:46;-140.1;;;-146.1;100.0
45864;BME280;31579;52.354;16.974;2023-04-23T01:31:50;-139.6;;;-146.1;100.0
45864;BME280;31579;52.354;16.974;2023-04-23T01:32:54;-139.3;;;-146.1;100.0
45864;BME280;31579;52.354;16.974;2023-04-23T01:33:58;-139.8;;;-146.1;100.0
45864;BME280;31579;52.354;16.974;2023-04-23T01:35:00;-120.3;;;-146.1;100.0
45864;BME280;31579;52.354;16.974;2023-04-23T01:36:03;-129.7;;;-146.1;100.0
45864;BME280;31579;52.354;16.974;2023-04-23T01:37:07;-139.8;;;-146.1;100.0
45864;BME280;31579;52.354;16.974;2023-04-23T01:38:11;-140.2;;;-146.1;100.0
45864;BME280;31579;52.354;16.974;2023-04-23T01:39:16;-140.3;;;-146.1;100.0
45864;BME280;31579;52.354;16.974;2023-04-23T01:40:20;-140.5;;;-146.1;100.0
45864;BME280;31579;52.354;16.974;2023-04-23T01:41:24;-140.9;;;-146.1;100.0
45864;BME280;31579;52.354;16.974;2023-04-23T01:42:29;-140.9;;;-146.1;100.0
45864;BME280;31579;52.354;16.974;2023-04-23T01:43:33;-138.9;;;-146.1;100.0
45864;BME280;31579;52.354;16.974;2023-04-23T01:44:37;-138.8;;;-146.1;100.0
45864;BME280;31579;52.354;16.974;2023-04-23T01:45:42;-138.6;;;-146.1;100.0
45864;BME280;31579;52.354;16.974;2023-04-23T01:46:46;-138.7;;;-146.1;100.0
45864;BME280;31579;52.354;16.974;2023-04-23T01:47:50;-138.6;;;-146.1;100.0
45864;BME280;31579;52.354;16.974;2023-04-23T01:48:54;-138.6;;;-146.1;100.0
45864;BME280;31579;52.354;16.974;2023-04-23T01:49:58;-138.5;;;-146.1;100.0
45864;BME280;31579;52.354;16.974;2023-04-23T01:51:00;-101.3;;;-146.1;100.0
45864;BME280;31579;52.354;16.974;2023-04-23T01:52:05;-133.3;;;-146.1;100.0
45864;BME280;31579;52.354;16.974;2023-04-23T01:53:09;-136.3;;;-146.1;100.0
45864;BME280;31579;52.354;16.974;2023-04-23T01:54:14;-137.7;;;-146.1;100.0
45864;BME280;31579;52.354;16.974;2023-04-23T01:55:18;-122.8;;;-146.1;100.0
45864;BME280;31579;52.354;16.974;2023-04-23T01:56:24;-134.0;;;-146.1;100.0
45864;BME280;31579;52.354;16.974;2023-04-23T01:57:26;-135.0;;;-146.1;100.0
45864;BME280;31579;52.354;16.974;2023-04-23T01:58:30;-135.6;;;-146.1;100.0
45864;BME280;31579;52.354;16.974;2023-04-23T01:59:34;-136.3;;;-146.1;100.0
45864;BME280;31579;52.354;16.974;2023-04-23T02:00:38;-137.0;;;-146.1;100.0
45864;BME280;31579;52.354;16.974;2023-04-23T02:01:43;-136.8;;;-146.1;100.0
45864;BME280;31579;52.354;16.974;2023-04-23T02:02:46;-135.8;;;-146.1;100.0
45864;BME280;31579;52.354;16.974;2023-04-23T02:03:50;-135.1;;;-146.1;100.0
45864;BME280;31579;52.354;16.974;2023-04-23T02:04:54;-134.5;;;-146.1;100.0
45864;BME280;31579;52.354;16.974;2023-04-23T02:05:58;-133.7;;;-146.1;100.0
45864;BME280;31579;52.354;16.974;2023-04-23T02:07:00;-82.2;;;-146.1;100.0
45864;BME280;31579;52.354;16.974;2023-04-23T02:08:05;-121.6;;;-146.1;100.0
45864;BME280;31579;52.354;16.974;2023-04-23T02:09:09;-124.2;;;-146.1;100.0
45864;BME280;31579;52.354;16.974;2023-04-23T02:10:13;-124.5;;;-146.1;100.0
45864;BME280;31579;52.354;16.974;2023-04-23T02:11:18;-142.5;;;-146.1;100.0
45864;BME280;31579;52.354;16.974;2023-04-23T02:12:22;-130.6;;;-146.1;100.0
45864;BME280;31579;52.354;16.974;2023-04-23T02:13:26;-128.6;;;-146.1;100.0
45864;BME280;31579;52.354;16.974;2023-04-23T02:14:30;-128.5;;;-146.1;100.0
45864;BME280;31579;52.354;16.974;2023-04-23T02:15:34;-128.2;;;-146.1;100.0
45864;BME280;31579;52.354;16.974;2023-04-23T02:16:38;-126.9;;;-146.1;100.0
45864;BME280;31579;52.354;16.974;2023-04-23T02:17:42;-125.1;;;-146.1;100.0
45864;BME280;31579;52.354;16.974;2023-04-23T02:18:46;-124.0;;;-146.1;100.0
45864;BME280;31579;52.354;16.974;2023-04-23T02:19:51;-123.5;;;-146.1;100.0
45864;BME280;31579;52.354;16.974;2023-04-23T02:20:55;-122.7;;;-146.1;100.0
45864;BME280;31579;52.354;16.974;2023-04-23T02:21:59;-121.9;;;-146.1;100.0
45864;BME280;31579;52.354;16.974;2023-04-23T02:23:03;-121.5;;;-146.1;100.0
45864;BME280;31579;52.354;16.974;2023-04-23T02:24:07;-121.2;;;-146.1;100.0
45864;BME280;31579;52.354;16.974;2023-04-23T02:25:11;-121.4;;;-146.1;100.0
45864;BME280;31579;52.354;16.974;2023-04-23T02:26:15;-122.0;;;-146.1;100.0
45864;BME280;31579;52.354;16.974;2023-04-23T02:27:17;-69.4;;;-146.1;100.0
45864;BME280;31579;52.354;16.974;2023-04-23T02:28:20;-77.4;;;-146.1;100.0
45864;BME280;31579;52.354;16.974;2023-04-23T02:29:24;-105.0;;;-146.1;100.0
45864;BME280;31579;52.354;16.974;2023-04-23T02:30:28;-108.4;;;-146.1;100.0
45864;BME280;31579;52.354;16.974;2023-04-23T02:31:32;-109.6;;;-146.1;100.0
45864;BME280;31579;52.354;16.974;2023-04-23T02:32:36;-110.1;;;-146.1;100.0
45864;BME280;31579;52.354;16.974;2023-04-23T02:33:40;-111.8;;;-146.1;100.0
45864;BME280;31579;52.354;16.974;2023-04-23T02:34:44;-112.8;;;-146.1;100.0
45864;BME280;31579;52.354;16.974;2023-04-23T02:35:48;-110.9;;;-146.1;100.0
45864;BME280;31579;52.354;16.974;2023-04-23T02:36:52;-110.6;;;-146.1;100.0
45864;BME280;31579;52.354;16.974;2023-04-23T02:37:56;-110.4;;;-146.1;100.0
45864;BME280;31579;52.354;16.974;2023-04-23T02:39:00;-109.2;;;-146.1;100.0
45864;BME280;31579;52.354;16.974;2023-04-23T02:40:09;-139.5;;;-146.1;100.0
45864;BME280;31579;52.354;16.974;2023-04-23T02:41:14;-122.3;;;-146.1;100.0
45864;BME280;31579;52.354;16.974;2023-04-23T02:42:18;-117.4;;;-146.1;100.0
45864;BME280;31579;52.354;16.974;2023-04-23T02:43:22;-114.5;;;-146.1;100.0
45864;BME280;31579;52.354;16.974;2023-04-23T02:44:26;-111.6;;;-146.1;100.0
45864;BME280;31579;52.354;16.974;2023-04-23T02:45:30;-110.2;;;-146.1;100.0
45864;BME280;31579;52.354;16.974;2023-04-23T02:46:34;-107.6;;;-146.1;100.0
45864;BME280;31579;52.354;16.974;2023-04-23T02:47:38;-104.8;;;-146.1;100.0
45864;BME280;31579;52.354;16.974;2023-04-23T02:48:42;-102.5;;;-146.1;100.0
45864;BME280;31579;52.354;16.974;2023-04-23T02:49:46;-99.8;;;-146.1;100.0
45864;BME280;31579;52.354;16.974;2023-04-23T02:50:50;-98.8;;;-146.1;100.0
45864;BME280;31579;52.354;16.974;2023-04-23T02:51:54;-97.2;;;-146.1;100.0
45864;BME280;31579;52.354;16.974;2023-04-23T02:53:00;-95.3;;;-146.1;100.0
45864;BME280;31579;52.354;16.974;2023-04-23T02:54:03;-93.5;;;-146.1;100.0
45864;BME280;31579;52.354;16.974;2023-04-23T02:55:07;-92.7;;;-146.1;100.0
45864;BME280;31579;52.354;16.974;2023-04-23T02:56:11;-92.4;;;-146.1;100.0
45864;BME280;31579;52.354;16.974;2023-04-23T02:57:15;-91.4;;;-146.1;100.0
45864;BME280;31579;52.354;16.974;2023-04-23T02:58:19;-89.0;;;-146.1;100.0
45864;BME280;31579;52.354;16.974;2023-04-23T02:59:23;-86.4;;;-146.1;100.0
45864;BME280;31579;52.354;16.974;2023-04-23T03:00:27;-84.0;;;-146.1;100.0
45864;BME280;31579;52.354;16.974;2023-04-23T03:01:31;-82.4;;;-146.1;100.0
45864;BME280;31579;52.354;16.974;2023-04-23T03:02:35;-80.8;;;-146.1;100.0
45864;BME280;31579;52.354;16.974;2023-04-23T03:03:39;-78.2;;;-146.1;100.0
45864;BME280;31579;52.354;16.974;2023-04-23T03:04:43;-76.8;;;-146.1;100.0
45864;BME280;31579;52.354;16.974;2023-04-23T03:05:47;-75.0;;;-146.1;100.0
45864;BME280;31579;52.354;16.974;2023-04-23T03:06:51;-72.7;;;-146.1;100.0
45864;BME280;31579;52.354;16.974;2023-04-23T03:07:55;-71.1;;;-146.1;100.0
45864;BME280;31579;52.354;16.974;2023-04-23T03:08:59;-69.0;;;-146.1;100.0
45864;BME280;31579;52.354;16.974;2023-04-23T03:10:03;-66.6;;;-146.1;100.0
45864;BME280;31579;52.354;16.974;2023-04-23T03:11:07;-66.9;;;-146.1;100.0
45864;BME280;31579;52.354;16.974;2023-04-23T03:12:12;-64.4;;;-146.1;100.0
45864;BME280;31579;52.354;16.974;2023-04-23T03:13:16;-63.2;;;-146.1;100.0
45864;BME280;31579;52.354;16.974;2023-04-23T03:14:20;-62.2;;;-146.1;100.0
45864;BME280;31579;52.354;16.974;2023-04-23T03:15:24;-61.7;;;-146.1;100.0
45864;BME280;31579;52.354;16.974;2023-04-23T03:16:28;-60.2;;;-146.1;100.0
45864;BME280;31579;52.354;16.974;2023-04-23T03:17:32;-57.7;;;-146.1;100.0
45864;BME280;31579;52.354;16.974;2023-04-23T03:18:36;-56.0;;;-146.1;100.0
45864;BME280;31579;52.354;16.974;2023-04-23T03:19:40;-54.8;;;-146.1;100.0
45864;BME280;31579;52.354;16.974;2023-04-23T03:20:44;-53.6;;;-146.1;100.0
45864;BME280;31579;52.354;16.974;2023-04-23T03:21:48;-52.7;;;-146.1;100.0
45864;BME280;31579;52.354;16.974;2023-04-23T03:22:53;-50.7;;;-146.1;100.0
45864;BME280;31579;52.354;16.974;2023-04-23T03:23:57;-50.6;;;-146.1;100.0
45864;BME280;31579;52.354;16.974;2023-04-23T03:25:01;-50.5;;;-146.1;100.0
45864;BME280;31579;52.354;16.974;2023-04-23T03:26:05;-48.8;;;-146.1;100.0
45864;BME280;31579;52.354;16.974;2023-04-23T03:27:09;-47.3;;;-146.1;100.0
45864;BME280;31579;52.354;16.974;2023-04-23T03:28:13;-45.8;;;-146.1;100.0
45864;BME280;31579;52.354;16.974;2023-04-23T03:29:18;-42.9;;;-146.1;100.0
45864;BME280;31579;52.354;16.974;2023-04-23T03:30:22;-41.1;;;-146.1;100.0
45864;BME280;31579;52.354;16.974;2023-04-23T03:31:26;-38.9;;;-146.1;100.0
45864;BME280;31579;52.354;16.974;2023-04-23T03:32:30;-38.4;;;-146.1;100.0
45864;BME280;31579;52.354;16.974;2023-04-23T03:33:34;-38.3;;;-146.1;100.0
45864;BME280;31579;52.354;16.974;2023-04-23T03:34:38;-37.4;;;-146.1;100.0
45864;BME280;31579;52.354;16.974;2023-04-23T03:35:42;-35.1;;;-146.1;100.0
45864;BME280;31579;52.354;16.974;2023-04-23T03:36:46;-34.9;;;-146.1;100.0
45864;BME280;31579;52.354;16.974;2023-04-23T03:37:50;-33.9;;;-146.1;100.0
45864;BME280;31579;52.354;16.974;2023-04-23T03:38:54;-31.6;;;-146.1;100.0
45864;BME280;31579;52.354;16.974;2023-04-23T03:40:11;-87.1;;;-146.1;100.0
45864;BME280;31579;52.354;16.974;2023-04-23T03:41:15;-65.8;;;-146.1;100.0
45864;BME280;31579;52.354;16.974;2023-04-23T03:42:19;-57.2;;;-146.1;100.0
45864;BME280;31579;52.354;16.974;2023-04-23T03:43:23;-51.3;;;-146.1;100.0
45864;BME280;31579;52.354;16.974;2023-04-23T03:44:27;-46.1;;;-146.1;100.0
45864;BME280;31579;52.354;16.974;2023-04-23T03:45:31;-41.4;;;-146.1;100.0
45864;BME280;31579;52.354;16.974;2023-04-23T03:46:36;-35.3;;;-146.1;100.0
45864;BME280;31579;52.354;16.974;2023-04-23T03:47:40;-31.6;;;-146.1;100.0
45864;BME280;31579;52.354;16.974;2023-04-23T03:48:44;-27.5;;;-146.1;100.0
45864;BME280;31579;52.354;16.974;2023-04-23T03:49:48;-21.6;;;-146.1;100.0
45864;BME280;31579;52.354;16.974;2023-04-23T03:50:52;-17.7;;;-146.1;100.0
45864;BME280;31579;52.354;16.974;2023-04-23T03:51:56;-14.3;;;-146.1;100.0
45864;BME280;31579;52.354;16.974;2023-04-23T03:53:00;-11.3;;;-146.1;100.0
45864;BME280;31579;52.354;16.974;2023-04-23T03:54:05;-5.9;;;-146.1;100.0
45864;BME280;31579;52.354;16.974;2023-04-23T03:55:09;-4.4;;;-146.1;100.0
45864;BME280;31579;52.354;16.974;2023-04-23T03:56:13;-2.5;;;-146.1;100.0
45864;BME280;31579;52.354;16.974;2023-04-23T03:57:17;-1.0;;;-146.1;100.0
45864;BME280;31579;52.354;16.974;2023-04-23T03:58:21;1.0;;;-146.1;100.0
45864;BME280;31579;52.354;16.974;2023-04-23T03:59:25;4.4;;;-146.1;100.0
45864;BME280;31579;52.354;16.974;2023-04-23T04:00:29;7.8;;;-146.1;100.0
45864;BME280;31579;52.354;16.974;2023-04-23T04:01:33;10.7;;;-146.1;100.0
45864;BME280;31579;52.354;16.974;2023-04-23T04:02:38;12.5;;;-146.1;100.0
45864;BME280;31579;52.354;16.974;2023-04-23T04:03:41;14.0;;;-146.1;100.0
45864;BME280;31579;52.354;16.974;2023-04-23T04:04:46;17.3;;;-146.1;100.0
45864;BME280;31579;52.354;16.974;2023-04-23T04:05:50;19.3;;;-146.1;100.0
45864;BME280;31579;52.354;16.974;2023-04-23T04:06:55;20.2;;;-146.1;100.0
45864;BME280;31579;52.354;16.974;2023-04-23T04:07:58;21.7;;;-146.1;100.0
45864;BME280;31579;52.354;16.974;2023-04-23T04:09:00;105.6;;;-146.1;100.0
45864;BME280;31579;52.354;16.974;2023-04-23T04:10:05;114.9;;;-146.1;100.0
45864;BME280;31579;52.354;16.974;2023-04-23T04:11:07;72.8;;;-146.1;100.0
45864;BME280;31579;52.354;16.974;2023-04-23T04:12:12;67.3;;;-146.1;100.0
45864;BME280;31579;52.354;16.974;2023-04-23T04:13:16;64.9;;;-146.1;100.0
45864;BME280;31579;52.354;16.974;2023-04-23T04:14:21;62.6;;;-146.1;100.0
45864;BME280;31579;52.354;16.974;2023-04-23T04:15:24;60.5;;;-146.1;100.0
45864;BME280;31579;52.354;16.974;2023-04-23T04:16:28;60.5;;;-146.1;100.0
45864;BME280;31579;52.354;16.974;2023-04-23T04:17:32;60.3;;;-146.1;100.0
45864;BME280;31579;52.354;16.974;2023-04-23T04:18:36;59.6;;;-146.1;100.0
45864;BME280;31579;52.354;16.974;2023-04-23T04:19:41;61.0;;;-146.1;100.0
45864;BME280;31579;52.354;16.974;2023-04-23T04:20:44;63.9;;;-146.1;100.0
45864;BME280;31579;52.354;16.974;2023-04-23T04:21:48;70.8;;;-146.1;100.0
45864;BME280;31579;52.354;16.974;2023-04-23T04:22:52;79.1;;;-146.1;100.0
45864;BME280;31579;52.354;16.974;2023-04-23T04:23:56;84.8;;;-146.1;100.0
45864;BME280;31579;52.354;16.974;2023-04-23T04:25:00;90.9;;;-146.1;100.0
45864;BME280;31579;52.354;16.974;2023-04-23T04:26:05;97.7;;;-146.1;100.0
45864;BME280;31579;52.354;16.974;2023-04-23T04:27:09;99.4;;;-146.1;100.0
45864;BME280;31579;52.354;16.974;2023-04-23T04:28:13;103.1;;;-146.1;100.0
45864;BME280;31579;52.354;16.974;2023-04-23T04:29:17;102.3;;;-146.1;100.0
45864;BME280;31579;52.354;16.974;2023-04-23T04:30:22;101.9;;;-146.1;100.0
45864;BME280;31579;52.354;16.974;2023-04-23T04:31:26;105.2;;;-146.1;100.0
45864;BME280;31579;52.354;16.974;2023-04-23T04:33:33;122.2;;;-146.1;100.0
45864;BME280;31579;52.354;16.974;2023-04-23T04:34:37;140.0;;;-146.1;100.0
45864;BME280;31579;52.354;16.974;2023-04-23T04:35:41;138.5;;;-146.1;100.0
45864;BME280;31579;52.354;16.974;2023-04-23T04:36:45;124.2;;;-146.1;100.0
45864;BME280;31579;52.354;16.974;2023-04-23T04:37:49;118.3;;;-146.1;100.0
45864;BME280;31579;52.354;16.974;2023-04-23T04:38:53;110.6;;;-146.1;100.0
45864;BME280;31579;52.354;16.974;2023-04-23T04:39:57;99.4;;;-146.1;100.0
45864;BME280;31579;52.354;16.974;2023-04-23T04:41:01;90.7;;;-146.1;100.0
45864;BME280;31579;52.354;16.974;2023-04-23T04:42:05;74.4;;;-146.1;100.0
45864;BME280;31579;52.354;16.974;2023-04-23T04:43:09;47.3;;;-146.1;100.0
45864;BME280;31579;52.354;16.974;2023-04-23T04:44:13;23.9;;;-146.1;100.0
45864;BME280;31579;52.354;16.974;2023-04-23T04:45:17;29.7;;;-146.1;100.0
45864;BME280;31579;52.354;16.974;2023-04-23T04:46:21;33.1;;;-146.1;100.0
45864;BME280;31579;52.354;16.974;2023-04-23T04:47:25;20.7;;;-146.1;100.0
45864;BME280;31579;52.354;16.974;2023-04-23T04:48:29;3.8;;;-146.1;100.0
45864;BME280;31579;52.354;16.974;2023-04-23T04:49:33;3.7;;;-146.1;100.0
45864;BME280;31579;52.354;16.974;2023-04-23T04:50:37;-11.1;;;-146.1;100.0
45864;BME280;31579;52.354;16.974;2023-04-23T04:51:42;-16.9;;;-146.1;100.0
45864;BME280;31579;52.354;16.974;2023-04-23T04:52:46;-22.0;;;-146.1;100.0
45864;BME280;31579;52.354;16.974;2023-04-23T04:53:50;-17.0;;;-146.1;100.0
45864;BME280;31579;52.354;16.974;2023-04-23T04:54:54;-5.5;;;-146.1;100.0
45864;BME280;31579;52.354;16.974;2023-04-23T04:55:58;9.0;;;-146.1;100.0
45864;BME280;31579;52.354;16.974;2023-04-23T04:57:00;45.8;;;-146.1;100.0
45864;BME280;31579;52.354;16.974;2023-04-23T04:58:05;48.0;;;-146.1;100.0
45864;BME280;31579;52.354;16.974;2023-04-23T04:59:09;74.9;;;-146.1;100.0
45864;BME280;31579;52.354;16.974;2023-04-23T05:01:18;211.7;;;-146.1;100.0
45864;BME280;31579;52.354;16.974;2023-04-23T05:02:22;255.1;;;-146.1;100.0
45864;BME280;31579;52.354;16.974;2023-04-23T05:03:26;312.2;;;-146.1;100.0
45864;BME280;31579;52.354;16.974;2023-04-23T05:04:30;347.8;;;-146.1;100.0
45864;BME280;31579;52.354;16.974;2023-04-23T05:05:34;400.4;;;-146.1;100.0
45864;BME280;31579;52.354;16.974;2023-04-23T05:06:38;329.2;;;-146.1;100.0
45864;BME280;31579;52.354;16.974;2023-04-23T05:07:42;566.8;;;-146.1;100.0
45864;BME280;31579;52.354;16.974;2023-04-23T05:08:46;1154.2;;;-146.1;100.0
45864;BME280;31579;52.354;16.974;2023-04-23T05:09:50;1154.1;;;-146.1;100.0
45864;BME280;31579;52.354;16.974;2023-04-23T05:10:54;1152.7;;;-146.1;100.0
45864;BME280;31579;52.354;16.974;2023-04-23T05:11:58;1150.6;;;-146.1;100.0
45864;BME280;31579;52.354;16.974;2023-04-23T05:13:00;1150.7;;;-146.1;100.0
45864;BME280;31579;52.354;16.974;2023-04-23T05:14:03;1144.2;;;-146.1;100.0
45864;BME280;31579;52.354;16.974;2023-04-23T05:15:09;1141.2;;;-146.1;100.0
45864;BME280;31579;52.354;16.974;2023-04-23T05:16:12;1138.8;;;-146.1;100.0
45864;BME280;31579;52.354;16.974;2023-04-23T05:17:15;1134.1;;;-146.1;100.0
45864;BME280;31579;52.354;16.974;2023-04-23T05:18:19;1127.2;;;-146.1;100.0
45864;BME280;31579;52.354;16.974;2023-04-23T05:19:23;1122.7;;;-146.1;100.0
45864;BME280;31579;52.354;16.974;2023-04-23T05:20:27;1123.1;;;-146.1;100.0
45864;BME280;31579;52.354;16.974;2023-04-23T05:21:31;1117.7;;;-146.1;100.0
45864;BME280;31579;52.354;16.974;2023-04-23T05:22:37;1112.3;;;-146.1;100.0
45864;BME280;31579;52.354;16.974;2023-04-23T05:23:39;1108.1;;;-146.1;100.0
45864;BME280;31579;52.354;16.974;2023-04-23T05:24:44;1107.5;;;-146.1;100.0
45864;BME280;31579;52.354;16.974;2023-04-23T05:25:48;1105.2;;;-146.1;100.0
45864;BME280;31579;52.354;16.974;2023-04-23T05:26:52;1101.1;;;-146.1;100.0
45864;BME280;31579;52.354;16.974;2023-04-23T05:27:56;1088.4;;;-146.1;100.0
45864;BME280;31579;52.354;16.974;2023-04-23T05:29:00;1078.3;;;-146.1;100.0
45864;BME280;31579;52.354;16.974;2023-04-23T05:30:07;1064.3;;;-146.1;100.0
45864;BME280;31579;52.354;16.974;2023-04-23T05:31:09;1060.7;;;-146.1;100.0
45864;BME280;31579;52.354;16.974;2023-04-23T05:32:13;1050.2;;;-146.1;100.0
45864;BME280;31579;52.354;16.974;2023-04-23T05:33:17;1034.3;;;-146.1;100.0
45864;BME280;31579;52.354;16.974;2023-04-23T05:34:21;1024.2;;;-146.1;100.0
45864;BME280;31579;52.354;16.974;2023-04-23T05:35:27;1022.8;;;-146.1;100.0
45864;BME280;31579;52.354;16.974;2023-04-23T05:36:29;1000.6;;;-146.1;100.0
45864;BME280;31579;52.354;16.974;2023-04-23T05:37:34;972.8;;;-146.1;100.0
45864;BME280;31579;52.354;16.974;2023-04-23T05:38:37;952.0;;;-146.1;100.0
45864;BME280;31579;52.354;16.974;2023-04-23T05:39:41;931.5;;;-146.1;100.0
45864;BME280;31579;52.354;16.974;2023-04-23T05:40:45;914.8;;;-146.1;100.0
45864;BME280;31579;52.354;16.974;2023-04-23T05:41:49;911.5;;;-146.1;100.0
45864;BME280;31579;52.354;16.974;2023-04-23T05:42:53;895.3;;;-146.1;100.0
45864;BME280;31579;52.354;16.974;2023-04-23T05:43:57;895.2;;;-146.1;100.0